ADDS METAR Data

Data at: 1831 UTC 20 Jul 2018

METAR for:KGNR (Greenville Muni, ME, US)
Text:KGNR 201756Z AUTO VRB04KT 27/14 A3018 RMK AO1 SLP216 T02670144 10267 20194 58006
Temperature: 26.7°C ( 80°F)
Dewpoint: 14.4°C ( 58°F) [RH = 47%]
Pressure (altimeter):30.18 inches Hg (1022.1 mb) [Sea level pressure: 1021.6 mb]
Winds:variable direction winds at 5 MPH (4 knots; 2.1 m/s)
QC Flag:automated observation with no human augmentation